createdAt,value
2018-03-07T00:01:17.378Z,98124
2018-03-07T00:03:45.651Z,98123
2018-03-07T00:06:13.943Z,98122
2018-03-07T00:08:42.289Z,98125
2018-03-07T00:11:11.273Z,98120
2018-03-07T00:13:40.254Z,98120
2018-03-07T00:16:09.472Z,98129
2018-03-07T00:18:37.689Z,98119
2018-03-07T00:21:05.934Z,98124
2018-03-07T00:23:34.302Z,98116
2018-03-07T00:26:02.554Z,98128
2018-03-07T00:34:34.297Z,98120
2018-03-07T00:37:02.515Z,98123
2018-03-07T00:39:31.566Z,98113
2018-03-07T00:41:59.916Z,98122
2018-03-07T00:44:28.147Z,98116
2018-03-07T00:46:56.369Z,98117
2018-03-07T00:49:24.620Z,98114
2018-03-07T00:51:53.603Z,98116
2018-03-07T00:54:22.600Z,98114
2018-03-07T00:57:17.684Z,98117
2018-03-07T01:00:16.729Z,98113
2018-03-07T01:02:45.030Z,98103
2018-03-07T01:05:19.365Z,98110
2018-03-07T01:07:47.639Z,98111
2018-03-07T01:10:19.081Z,98106
2018-03-07T01:12:47.452Z,98095
2018-03-07T01:15:15.674Z,98097
2018-03-07T01:17:44.740Z,98097
2018-03-07T01:20:13.821Z,98089
2018-03-07T01:22:42.040Z,98095
2018-03-07T01:25:18.534Z,98090
2018-03-07T01:27:46.752Z,98096
2018-03-07T01:30:14.989Z,98086
2018-03-07T01:32:43.253Z,98094
2018-03-07T01:35:11.607Z,98091
2018-03-07T01:37:40.620Z,98093
2018-03-07T01:40:18.826Z,98088
2018-03-07T01:43:17.527Z,98091
2018-03-07T01:45:45.816Z,98091
2018-03-07T01:48:20.334Z,98091
2018-03-07T01:50:48.607Z,98098
2018-03-07T01:53:16.816Z,98083
2018-03-07T01:55:45.141Z,98084
2018-03-07T01:58:13.380Z,98081
2018-03-07T02:00:42.204Z,98072
2018-03-07T02:03:10.411Z,98070
2018-03-07T02:05:38.650Z,98071
2018-03-07T02:08:20.027Z,98077
2018-03-07T02:11:17.024Z,98075
2018-03-07T02:13:45.251Z,98072
2018-03-07T02:16:19.777Z,98064
2018-03-07T02:18:48.003Z,98068
2018-03-07T02:21:16.266Z,98061
2018-03-07T02:23:44.614Z,98064
2018-03-07T02:26:12.828Z,98060
2018-03-07T02:28:41.057Z,98060
2018-03-07T02:31:09.382Z,98057
2018-03-07T02:33:37.610Z,98074
2018-03-07T02:36:25.085Z,98066
2018-03-07T02:39:17.452Z,98073
2018-03-07T02:41:46.576Z,98071
2018-03-07T02:44:20.697Z,98069
2018-03-07T02:46:48.958Z,98060
2018-03-07T02:49:17.178Z,98063
2018-03-07T02:51:46.221Z,98073
2018-03-07T02:54:14.502Z,98067
2018-03-07T02:56:42.726Z,98064
2018-03-07T02:59:11.058Z,98062
2018-03-07T03:01:39.418Z,98062
2018-03-07T03:04:20.061Z,98068
2018-03-07T03:07:17.092Z,98059
2018-03-07T03:09:45.299Z,98064
2018-03-07T03:12:20.068Z,98059
2018-03-07T03:14:48.317Z,98059
2018-03-07T03:17:16.539Z,98063
2018-03-07T03:19:44.799Z,98061
2018-03-07T03:22:13.041Z,98058
2018-03-07T03:24:41.301Z,98059
2018-03-07T03:27:10.411Z,98056
2018-03-07T03:29:38.634Z,98061
2018-03-07T03:32:06.972Z,98049
2018-03-07T03:34:35.229Z,98051
2018-03-07T03:37:03.477Z,98057
2018-03-07T03:39:31.689Z,98057
2018-03-07T03:41:59.950Z,98064
2018-03-07T03:44:28.731Z,98071
2018-03-07T03:47:17.211Z,98061
2018-03-07T03:49:45.433Z,98059
2018-03-07T03:52:13.732Z,98060
2018-03-07T03:54:42.744Z,98064
2018-03-07T03:57:10.990Z,98059
2018-03-07T03:59:40.624Z,98062
2018-03-07T04:02:08.886Z,98068
2018-03-07T04:04:37.115Z,98064
2018-03-07T04:07:05.328Z,98057
2018-03-07T04:09:34.441Z,98059
2018-03-07T04:12:02.658Z,98061
2018-03-07T04:14:30.866Z,98074
2018-03-07T04:16:59.875Z,98061
2018-03-07T04:19:28.182Z,98062
2018-03-07T04:21:56.434Z,98060
2018-03-07T04:24:24.687Z,98073
2018-03-07T04:26:53.707Z,98051
2018-03-07T04:29:21.975Z,98058
2018-03-07T04:31:50.246Z,98060
2018-03-07T04:34:18.553Z,98058
2018-03-07T04:36:46.785Z,98057
2018-03-07T04:39:15.890Z,98063
2018-03-07T04:41:44.165Z,98059
2018-03-07T04:44:12.376Z,98068
2018-03-07T04:46:40.629Z,98060
2018-03-07T04:49:08.840Z,98064
2018-03-07T04:51:37.065Z,98055
2018-03-07T04:54:06.339Z,98056
2018-03-07T04:56:35.469Z,98056
2018-03-07T04:59:17.866Z,98057
2018-03-07T05:01:46.083Z,98056
2018-03-07T05:04:14.308Z,98057
2018-03-07T05:06:42.551Z,98053
2018-03-07T05:09:10.856Z,98053
2018-03-07T05:11:39.069Z,98058
2018-03-07T05:14:07.318Z,98057
2018-03-07T05:16:35.528Z,98062
2018-03-07T05:19:03.742Z,98059
2018-03-07T05:21:32.760Z,98076
2018-03-07T05:24:00.978Z,98061
2018-03-07T05:29:45.092Z,98079
2018-03-07T05:32:13.297Z,98074
2018-03-07T05:34:41.517Z,98075
2018-03-07T05:37:10.559Z,98076
2018-03-07T05:39:38.809Z,98076
2018-03-07T05:42:07.117Z,98069
2018-03-07T05:44:35.373Z,98072
2018-03-07T05:47:04.487Z,98074
2018-03-07T05:49:33.558Z,98077
2018-03-07T05:52:01.842Z,98078
2018-03-07T05:54:30.076Z,98079
2018-03-07T05:56:58.325Z,98069
2018-03-07T05:59:26.584Z,98070
2018-03-07T06:01:54.825Z,98074
2018-03-07T06:04:23.054Z,98070
2018-03-07T06:07:17.724Z,98073
2018-03-07T06:09:45.954Z,98072
2018-03-07T06:12:14.940Z,98073
2018-03-07T06:14:44.040Z,98072
2018-03-07T06:17:13.161Z,98080
2018-03-07T06:19:41.563Z,98076
2018-03-07T06:22:09.813Z,98075
2018-03-07T06:24:38.746Z,98078
2018-03-07T06:27:07.066Z,98083
2018-03-07T06:29:35.329Z,98083
2018-03-07T06:32:04.310Z,98092
2018-03-07T06:37:33.487Z,98109
2018-03-07T06:40:01.721Z,98101
2018-03-07T06:42:30.039Z,98102
2018-03-07T06:44:58.383Z,98112
2018-03-07T06:47:26.648Z,98112
2018-03-07T06:51:38.631Z,98112
2018-03-07T06:54:06.951Z,98107
2018-03-07T06:56:35.196Z,98122
2018-03-07T06:59:04.215Z,98116
2018-03-07T07:04:18.929Z,98118
2018-03-07T07:07:17.368Z,98122
2018-03-07T07:12:46.407Z,98127
2018-03-07T07:21:20.251Z,98124
2018-03-07T07:24:18.657Z,98139
2018-03-07T07:27:17.686Z,98133
2018-03-07T07:33:17.593Z,98139
2018-03-07T07:41:45.925Z,98135
2018-03-07T07:44:20.893Z,98139
2018-03-07T07:47:17.078Z,98130
2018-03-07T07:52:45.189Z,98145
2018-03-07T07:55:14.884Z,98146
2018-03-07T07:57:43.920Z,98144
2018-03-07T08:00:12.312Z,98146
2018-03-07T08:02:40.562Z,98154
2018-03-07T08:05:08.794Z,98158
2018-03-07T08:07:37.138Z,98157
2018-03-07T08:10:17.850Z,98163
2018-03-07T08:13:17.210Z,98159
2018-03-07T08:19:16.847Z,98164
2018-03-07T08:31:17.041Z,98180
2018-03-07T08:40:17.305Z,98185
2018-03-07T08:46:17.301Z,98191
2018-03-07T08:58:16.574Z,98210
2018-03-07T09:10:16.701Z,98217
2018-03-07T09:31:16.957Z,98242
2018-03-07T09:37:16.967Z,98252
2018-03-07T09:46:17.417Z,98262
2018-03-07T09:52:17.246Z,98275
2018-03-07T10:01:17.224Z,98288
2018-03-07T10:07:16.860Z,98300
2018-03-07T10:16:17.359Z,98307
2018-03-07T10:22:16.690Z,98307
2018-03-07T10:31:17.490Z,98325
2018-03-07T10:40:17.052Z,98329
2018-03-07T10:52:17.315Z,98339
2018-03-07T10:58:17.258Z,98336
2018-03-07T11:04:16.958Z,98350
2018-03-07T11:13:17.477Z,98346
2018-03-07T11:25:16.802Z,98350
2018-03-07T11:34:17.596Z,98355
2018-03-07T11:46:16.664Z,98355
2018-03-07T11:55:17.453Z,98370
2018-03-07T12:04:18.008Z,98366
2018-03-07T12:09:46.322Z,98376
2018-03-07T12:12:20.881Z,98370
2018-03-07T12:15:16.656Z,98373
2018-03-07T12:17:44.882Z,98378
2018-03-07T12:20:19.505Z,98374
2018-03-07T12:22:47.712Z,98377
2018-03-07T12:31:19.441Z,98394
2018-03-07T12:34:16.991Z,98384
2018-03-07T12:40:09.406Z,98392
2018-03-07T13:34:17.307Z,98428
2018-03-07T13:39:59.041Z,98434
2018-03-07T13:42:27.267Z,98432
2018-03-07T13:45:18.316Z,98437
2018-03-07T14:57:17.200Z,98476
2018-03-07T15:09:17.463Z,98469
2018-03-07T15:21:17.345Z,98473
2018-03-07T15:33:17.627Z,98480
2018-03-07T15:39:17.196Z,98479
2018-03-07T15:48:17.562Z,98497
2018-03-07T15:54:17.370Z,98519
2018-03-07T16:00:17.239Z,98523
2018-03-07T16:09:17.043Z,98526
2018-03-07T16:24:17.205Z,98547
2018-03-07T16:42:17.073Z,98572
2018-03-07T16:51:17.728Z,98570
2018-03-07T16:57:17.673Z,98577
2018-03-07T17:00:17.467Z,98580
2018-03-07T17:05:29.667Z,98590
2018-03-07T17:11:17.984Z,98593
2018-03-07T17:20:17.977Z,98603
2018-03-07T17:29:17.616Z,98618
2018-03-07T17:35:17.333Z,98617
2018-03-07T17:41:17.042Z,98623
2018-03-07T17:50:17.728Z,98631
2018-03-07T17:56:17.484Z,98636
2018-03-07T18:05:17.042Z,98634
2018-03-07T18:20:18.572Z,98644
2018-03-07T18:23:17.476Z,98638
2018-03-07T18:32:17.461Z,98650
2018-03-07T18:34:46.104Z,98651
2018-03-07T18:55:17.737Z,98653
2018-03-07T19:01:17.545Z,98661
2018-03-07T19:03:45.771Z,98665
2018-03-07T19:06:14.782Z,98666
2018-03-07T19:08:43.292Z,98668
2018-03-07T19:11:18.806Z,98666
2018-03-07T19:17:17.580Z,98672
2018-03-07T19:32:17.156Z,98678
2018-03-07T19:38:17.035Z,98686
2018-03-07T20:07:43.445Z,98698
2018-03-07T20:10:19.067Z,98707
2018-03-07T20:13:17.959Z,98714
2018-03-07T20:16:17.186Z,98714
2018-03-07T20:25:16.882Z,98732
2018-03-07T20:34:17.742Z,98732
2018-03-07T20:49:17.562Z,98750
2018-03-07T20:51:46.554Z,98746
2018-03-07T20:54:14.805Z,98749
2018-03-07T20:56:43.108Z,98750
2018-03-07T20:59:11.353Z,98749
2018-03-07T21:01:39.569Z,98758
2018-03-07T21:04:08.608Z,98756
2018-03-07T21:06:36.825Z,98757
2018-03-07T21:09:05.155Z,98763
2018-03-07T21:11:33.400Z,98764
2018-03-07T21:14:02.413Z,98767
2018-03-07T21:16:30.699Z,98767
2018-03-07T21:18:58.926Z,98766
2018-03-07T21:21:27.937Z,98770
2018-03-07T21:23:56.998Z,98777
2018-03-07T21:26:25.225Z,98768
2018-03-07T21:28:53.539Z,98777
2018-03-07T21:31:21.827Z,98782
2018-03-07T21:33:50.051Z,98777
2018-03-07T21:36:18.353Z,98791
2018-03-07T21:38:46.696Z,98782
2018-03-07T21:41:14.901Z,98784
2018-03-07T21:43:43.151Z,98783
2018-03-07T21:46:11.530Z,98782
2018-03-07T21:48:39.814Z,98786
2018-03-07T21:51:08.076Z,98793
2018-03-07T21:53:36.466Z,98792
2018-03-07T21:56:04.682Z,98797
2018-03-07T21:58:32.892Z,98800
2018-03-07T22:01:01.302Z,98785
2018-03-07T22:03:29.520Z,98799
2018-03-07T22:05:57.726Z,98797
2018-03-07T22:08:25.974Z,98792
2018-03-07T22:10:54.277Z,98801
2018-03-07T22:13:22.604Z,98806
2018-03-07T22:15:50.936Z,98807
2018-03-07T22:18:19.254Z,98806
2018-03-07T22:20:47.593Z,98817
2018-03-07T22:23:15.847Z,98822
2018-03-07T22:25:44.848Z,98811
2018-03-07T22:28:13.135Z,98819
2018-03-07T22:30:41.440Z,98806
2018-03-07T22:33:09.854Z,98818
2018-03-07T22:35:38.305Z,98815
2018-03-07T22:38:06.514Z,98823
2018-03-07T22:40:35.548Z,98826
2018-03-07T22:43:03.774Z,98831
2018-03-07T22:45:32.027Z,98835
2018-03-07T22:48:00.242Z,98827
2018-03-07T22:50:29.901Z,98832
2018-03-07T22:52:58.257Z,98838
2018-03-07T22:55:26.509Z,98825
2018-03-07T22:57:55.609Z,98830
2018-03-07T23:00:29.420Z,98826
2018-03-07T23:02:57.788Z,98827
2018-03-07T23:05:26.008Z,98836
2018-03-07T23:07:54.235Z,98840
2018-03-07T23:10:22.513Z,98841
2018-03-07T23:12:50.783Z,98848
2018-03-07T23:15:19.761Z,98848
2018-03-07T23:17:48.773Z,98840
2018-03-07T23:20:17.058Z,98845
2018-03-07T23:22:45.951Z,98848
2018-03-07T23:25:14.234Z,98839
2018-03-07T23:27:42.499Z,98848
2018-03-07T23:30:10.738Z,98843
2018-03-07T23:32:39.766Z,98845
2018-03-07T23:35:08.024Z,98850
2018-03-07T23:37:37.029Z,98853
2018-03-07T23:40:05.235Z,98856
2018-03-07T23:42:33.590Z,98856
2018-03-07T23:45:01.844Z,98861
2018-03-07T23:47:30.883Z,98858
2018-03-07T23:50:19.095Z,98867
2018-03-07T23:52:47.361Z,98865
2018-03-07T23:55:15.567Z,98883
2018-03-07T23:57:43.798Z,98872
